Chapmansboro, Tennessee
Current Conditions -  °F | °C
As of 10:55 AM on Saturday 22 Nov 2014 (Local Time) from KM91 Reporting Station
Broken Clouds Broken Clouds  
Wind Chill: 57°   Ceiling: 9000
Heat Index: 57°   Visibility: 10mi
Dew Point: 36°   Wind: 12mph
Humidity: 44%   Direction: 200°SSW
Pressure: 30.28"   Gusts: NA
Location:  36.37°N, 87.14°W
Report Text: KM91 221655Z AUTO 20010KT 10SM BKN090 14/02 A3028 RMK
Loading
Personal Weather Stations






























Interactive Weather Map New forecast layout! Learn more

10-Day Weather Forecast

Advertisements
Track Severe Weather on mobile